sensor_id;sensor_type;location;lat;lon;timestamp;pressure;altitude;pressure_sealevel;temperature;humidity
79236;BME280;69062;47.460;18.812;2024-03-08T00:00:36;100549.97;;;5.91;83.18
79236;BME280;69062;47.460;18.812;2024-03-08T00:02:46;100548.03;;;5.99;82.93
79236;BME280;69062;47.460;18.812;2024-03-08T00:04:49;100547.31;;;5.93;82.16
79236;BME280;69062;47.460;18.812;2024-03-08T00:06:52;100549.09;;;5.92;82.38
79236;BME280;69062;47.460;18.812;2024-03-08T00:08:55;100551.66;;;5.95;81.72
79236;BME280;69062;47.460;18.812;2024-03-08T00:10:58;100545.56;;;5.93;82.00
79236;BME280;69062;47.460;18.812;2024-03-08T00:13:01;100537.75;;;5.92;83.09
79236;BME280;69062;47.460;18.812;2024-03-08T00:15:07;100540.38;;;5.90;82.84
79236;BME280;69062;47.460;18.812;2024-03-08T00:17:10;100539.44;;;5.94;82.32
79236;BME280;69062;47.460;18.812;2024-03-08T00:19:12;100541.25;;;5.91;83.10
79236;BME280;69062;47.460;18.812;2024-03-08T00:21:15;100543.09;;;5.87;82.74
79236;BME280;69062;47.460;18.812;2024-03-08T00:23:18;100535.34;;;5.81;82.98
79236;BME280;69062;47.460;18.812;2024-03-08T00:25:21;100541.31;;;5.88;82.19
79236;BME280;69062;47.460;18.812;2024-03-08T00:27:24;100543.09;;;5.87;83.12
79236;BME280;69062;47.460;18.812;2024-03-08T00:29:27;100543.25;;;5.79;82.91
79236;BME280;69062;47.460;18.812;2024-03-08T00:31:30;100541.56;;;5.77;82.43
79236;BME280;69062;47.460;18.812;2024-03-08T00:33:35;100539.88;;;5.74;83.92
79236;BME280;69062;47.460;18.812;2024-03-08T00:35:39;100545.03;;;5.77;82.82
79236;BME280;69062;47.460;18.812;2024-03-08T00:37:42;100543.47;;;5.70;82.70
79236;BME280;69062;47.460;18.812;2024-03-08T00:39:45;100543.34;;;5.75;83.49
79236;BME280;69062;47.460;18.812;2024-03-08T00:41:48;100531.94;;;5.77;83.40
79236;BME280;69062;47.460;18.812;2024-03-08T00:43:51;100538.06;;;5.76;84.04
79236;BME280;69062;47.460;18.812;2024-03-08T00:45:53;100537.06;;;5.82;83.42
79236;BME280;69062;47.460;18.812;2024-03-08T00:47:56;100533.59;;;5.81;83.39
79236;BME280;69062;47.460;18.812;2024-03-08T00:49:59;100534.47;;;5.82;83.30
79236;BME280;69062;47.460;18.812;2024-03-08T00:52:02;100534.63;;;5.74;83.32
79236;BME280;69062;47.460;18.812;2024-03-08T00:54:05;100530.25;;;5.75;83.21
79236;BME280;69062;47.460;18.812;2024-03-08T00:56:08;100534.72;;;5.70;82.94
79236;BME280;69062;47.460;18.812;2024-03-08T00:58:14;100524.97;;;5.76;83.62
79236;BME280;69062;47.460;18.812;2024-03-08T01:00:17;100527.41;;;5.84;83.10
79236;BME280;69062;47.460;18.812;2024-03-08T01:02:20;100525.59;;;5.86;83.46
79236;BME280;69062;47.460;18.812;2024-03-08T01:04:23;100522.31;;;5.78;83.63
79236;BME280;69062;47.460;18.812;2024-03-08T01:06:28;100520.63;;;5.75;84.68
79236;BME280;69062;47.460;18.812;2024-03-08T01:08:31;100523.34;;;5.71;84.55
79236;BME280;69062;47.460;18.812;2024-03-08T01:10:34;100520.81;;;5.68;84.59
79236;BME280;69062;47.460;18.812;2024-03-08T01:12:38;100514.63;;;5.70;84.34
79236;BME280;69062;47.460;18.812;2024-03-08T01:14:40;100521.50;;;5.76;84.27
79236;BME280;69062;47.460;18.812;2024-03-08T01:16:43;100516.25;;;5.76;84.77
79236;BME280;69062;47.460;18.812;2024-03-08T01:18:46;100519.63;;;5.81;83.86
79236;BME280;69062;47.460;18.812;2024-03-08T01:20:49;100524.88;;;5.81;83.59
79236;BME280;69062;47.460;18.812;2024-03-08T01:22:53;100522.97;;;5.86;83.85
79236;BME280;69062;47.460;18.812;2024-03-08T01:24:56;100521.22;;;5.88;84.31
79236;BME280;69062;47.460;18.812;2024-03-08T01:26:59;100520.44;;;5.83;84.22
79236;BME280;69062;47.460;18.812;2024-03-08T01:29:03;100512.53;;;5.85;83.86
79236;BME280;69062;47.460;18.812;2024-03-08T01:31:06;100519.53;;;5.84;83.96
79236;BME280;69062;47.460;18.812;2024-03-08T01:33:08;100512.44;;;5.89;84.61
79236;BME280;69062;47.460;18.812;2024-03-08T01:35:11;100522.81;;;5.94;84.13
79236;BME280;69062;47.460;18.812;2024-03-08T01:37:14;100508.91;;;5.90;84.23
79236;BME280;69062;47.460;18.812;2024-03-08T01:39:17;100516.16;;;5.79;84.00
79236;BME280;69062;47.460;18.812;2024-03-08T01:41:21;100517.91;;;5.80;84.86
79236;BME280;69062;47.460;18.812;2024-03-08T01:43:27;100515.41;;;5.75;83.97
79236;BME280;69062;47.460;18.812;2024-03-08T01:45:33;100512.53;;;5.85;84.39
79236;BME280;69062;47.460;18.812;2024-03-08T01:47:37;100507.19;;;5.91;84.31
79236;BME280;69062;47.460;18.812;2024-03-08T01:49:40;100506.28;;;5.92;83.70
79236;BME280;69062;47.460;18.812;2024-03-08T01:51:43;100502.97;;;5.84;83.95
79236;BME280;69062;47.460;18.812;2024-03-08T01:53:49;100511.81;;;5.78;83.94
79236;BME280;69062;47.460;18.812;2024-03-08T01:55:55;100510.88;;;5.82;84.82
79236;BME280;69062;47.460;18.812;2024-03-08T01:57:59;100504.72;;;5.83;84.09
79236;BME280;69062;47.460;18.812;2024-03-08T02:00:02;100501.16;;;5.87;84.38
79236;BME280;69062;47.460;18.812;2024-03-08T02:02:11;100509.06;;;5.84;83.58
79236;BME280;69062;47.460;18.812;2024-03-08T02:04:20;100514.50;;;5.76;84.22
79236;BME280;69062;47.460;18.812;2024-03-08T02:06:24;100511.16;;;5.70;84.28
79236;BME280;69062;47.460;18.812;2024-03-08T02:08:28;100507.84;;;5.62;83.72
79236;BME280;69062;47.460;18.812;2024-03-08T02:10:31;100507.78;;;5.65;83.31
79236;BME280;69062;47.460;18.812;2024-03-08T02:12:34;100505.09;;;5.68;82.86
79236;BME280;69062;47.460;18.812;2024-03-08T02:14:37;100509.47;;;5.67;83.28
79236;BME280;69062;47.460;18.812;2024-03-08T02:16:42;100508.63;;;5.67;82.87
79236;BME280;69062;47.460;18.812;2024-03-08T02:18:45;100511.91;;;5.75;83.76
79236;BME280;69062;47.460;18.812;2024-03-08T02:20:52;100511.91;;;5.75;82.76
79236;BME280;69062;47.460;18.812;2024-03-08T02:22:55;100510.28;;;5.69;83.07
79236;BME280;69062;47.460;18.812;2024-03-08T02:24:59;100513.72;;;5.71;83.00
79236;BME280;69062;47.460;18.812;2024-03-08T02:27:04;100512.88;;;5.71;83.15
79236;BME280;69062;47.460;18.812;2024-03-08T02:29:07;100512.81;;;5.74;82.75
79236;BME280;69062;47.460;18.812;2024-03-08T02:31:10;100510.06;;;5.78;82.64
79236;BME280;69062;47.460;18.812;2024-03-08T02:33:14;100508.56;;;5.68;83.21
79236;BME280;69062;47.460;18.812;2024-03-08T02:35:20;100504.25;;;5.67;84.38
79236;BME280;69062;47.460;18.812;2024-03-08T02:37:22;100511.81;;;5.78;83.49
79236;BME280;69062;47.460;18.812;2024-03-08T02:39:25;100506.72;;;5.73;82.83
79236;BME280;69062;47.460;18.812;2024-03-08T02:41:28;100503.47;;;5.62;82.61
79236;BME280;69062;47.460;18.812;2024-03-08T02:43:31;100515.56;;;5.68;82.94
79236;BME280;69062;47.460;18.812;2024-03-08T02:45:33;100514.50;;;5.76;83.16
79236;BME280;69062;47.460;18.812;2024-03-08T02:47:38;100506.78;;;5.70;81.95
79236;BME280;69062;47.460;18.812;2024-03-08T02:49:41;100509.34;;;5.72;81.72
79236;BME280;69062;47.460;18.812;2024-03-08T02:51:43;100511.00;;;5.76;82.08
79236;BME280;69062;47.460;18.812;2024-03-08T02:53:46;100508.31;;;5.79;83.12
79236;BME280;69062;47.460;18.812;2024-03-08T02:55:51;100509.09;;;5.82;82.46
79236;BME280;69062;47.460;18.812;2024-03-08T02:57:54;100509.81;;;5.89;81.90
79236;BME280;69062;47.460;18.812;2024-03-08T02:59:58;100502.75;;;5.94;81.50
79236;BME280;69062;47.460;18.812;2024-03-08T03:02:02;100507.91;;;5.97;81.03
79236;BME280;69062;47.460;18.812;2024-03-08T03:04:05;100506.34;;;5.89;81.06
79236;BME280;69062;47.460;18.812;2024-03-08T03:06:08;100509.88;;;5.88;81.39
79236;BME280;69062;47.460;18.812;2024-03-08T03:08:11;100514.31;;;5.84;80.53
79236;BME280;69062;47.460;18.812;2024-03-08T03:10:16;100511.00;;;5.76;81.23
79236;BME280;69062;47.460;18.812;2024-03-08T03:12:19;100518.84;;;5.77;81.08
79236;BME280;69062;47.460;18.812;2024-03-08T03:14:22;100515.22;;;5.83;81.74
79236;BME280;69062;47.460;18.812;2024-03-08T03:16:25;100511.16;;;5.70;81.36
79236;BME280;69062;47.460;18.812;2024-03-08T03:18:27;100511.81;;;5.79;81.44
79236;BME280;69062;47.460;18.812;2024-03-08T03:20:30;100517.13;;;5.76;81.22
79236;BME280;69062;47.460;18.812;2024-03-08T03:22:44;100523.34;;;5.72;81.09
79236;BME280;69062;47.460;18.812;2024-03-08T03:24:50;100520.72;;;5.71;80.56
79236;BME280;69062;47.460;18.812;2024-03-08T03:26:54;100520.72;;;5.71;82.27
79236;BME280;69062;47.460;18.812;2024-03-08T03:28:57;100512.91;;;5.69;82.43
79236;BME280;69062;47.460;18.812;2024-03-08T03:31:01;100520.81;;;5.68;81.30
79236;BME280;69062;47.460;18.812;2024-03-08T03:33:04;100526.16;;;5.63;81.00
79236;BME280;69062;47.460;18.812;2024-03-08T03:35:10;100520.81;;;5.68;81.49
79236;BME280;69062;47.460;18.812;2024-03-08T03:37:13;100524.94;;;5.78;81.46
79236;BME280;69062;47.460;18.812;2024-03-08T03:39:16;100525.72;;;5.81;81.02
79236;BME280;69062;47.460;18.812;2024-03-08T03:41:19;100528.16;;;5.89;81.26
79236;BME280;69062;47.460;18.812;2024-03-08T03:43:23;100528.22;;;5.88;81.34
79236;BME280;69062;47.460;18.812;2024-03-08T03:45:26;100520.00;;;5.66;80.17
79236;BME280;69062;47.460;18.812;2024-03-08T03:47:29;100519.09;;;5.67;81.33
79236;BME280;69062;47.460;18.812;2024-03-08T03:49:31;100525.44;;;5.57;81.01
79236;BME280;69062;47.460;18.812;2024-03-08T03:51:35;100514.03;;;5.59;81.24
79236;BME280;69062;47.460;18.812;2024-03-08T03:53:38;100518.25;;;5.66;81.43
79236;BME280;69062;47.460;18.812;2024-03-08T03:55:41;100527.00;;;5.64;81.62
79236;BME280;69062;47.460;18.812;2024-03-08T03:57:44;100524.47;;;5.61;80.73
79236;BME280;69062;47.460;18.812;2024-03-08T03:59:48;100525.34;;;5.61;81.33
79236;BME280;69062;47.460;18.812;2024-03-08T04:01:53;100521.69;;;5.68;82.40
79236;BME280;69062;47.460;18.812;2024-03-08T04:03:56;100532.28;;;5.62;81.25
79236;BME280;69062;47.460;18.812;2024-03-08T04:05:59;100521.69;;;5.68;80.72
79236;BME280;69062;47.460;18.812;2024-03-08T04:08:03;100518.84;;;5.77;81.14
79236;BME280;69062;47.460;18.812;2024-03-08T04:10:08;100525.19;;;5.67;80.43
79236;BME280;69062;47.460;18.812;2024-03-08T04:12:11;100523.28;;;5.74;81.02
79236;BME280;69062;47.460;18.812;2024-03-08T04:14:14;100524.13;;;5.76;81.68
79236;BME280;69062;47.460;18.812;2024-03-08T04:16:20;100523.50;;;5.65;81.46
79236;BME280;69062;47.460;18.812;2024-03-08T04:18:23;100520.97;;;5.62;82.07
79236;BME280;69062;47.460;18.812;2024-03-08T04:20:26;100520.97;;;5.62;82.94
79236;BME280;69062;47.460;18.812;2024-03-08T04:22:28;100522.72;;;5.61;82.10
79236;BME280;69062;47.460;18.812;2024-03-08T04:24:31;100523.84;;;5.49;81.57
79236;BME280;69062;47.460;18.812;2024-03-08T04:26:34;100527.28;;;5.53;81.54
79236;BME280;69062;47.460;18.812;2024-03-08T04:28:37;100525.44;;;5.57;81.71
79236;BME280;69062;47.460;18.812;2024-03-08T04:30:39;100528.13;;;5.53;82.15
79236;BME280;69062;47.460;18.812;2024-03-08T04:32:43;100526.34;;;5.56;81.60
79236;BME280;69062;47.460;18.812;2024-03-08T04:34:46;100528.94;;;5.56;81.53
79236;BME280;69062;47.460;18.812;2024-03-08T04:36:49;100529.72;;;5.61;81.26
79236;BME280;69062;47.460;18.812;2024-03-08T04:38:52;100524.41;;;5.64;82.03
79236;BME280;69062;47.460;18.812;2024-03-08T04:40:55;100523.06;;;5.46;81.27
79236;BME280;69062;47.460;18.812;2024-03-08T04:42:59;100524.78;;;5.47;81.84
79236;BME280;69062;47.460;18.812;2024-03-08T04:45:02;100533.38;;;5.53;81.37
79236;BME280;69062;47.460;18.812;2024-03-08T04:47:06;100530.06;;;5.45;82.09
79236;BME280;69062;47.460;18.812;2024-03-08T04:49:09;100532.56;;;5.51;82.57
79236;BME280;69062;47.460;18.812;2024-03-08T04:51:14;100534.38;;;5.48;81.03
79236;BME280;69062;47.460;18.812;2024-03-08T04:53:18;100536.91;;;5.52;81.88
79236;BME280;69062;47.460;18.812;2024-03-08T04:55:28;100533.28;;;5.58;81.54
79236;BME280;69062;47.460;18.812;2024-03-08T04:57:31;100539.97;;;5.70;82.10
79236;BME280;69062;47.460;18.812;2024-03-08T04:59:34;100538.16;;;5.73;82.04
79236;BME280;69062;47.460;18.812;2024-03-08T05:01:37;100538.25;;;5.69;81.41
79236;BME280;69062;47.460;18.812;2024-03-08T05:03:40;100538.16;;;5.73;80.78
79236;BME280;69062;47.460;18.812;2024-03-08T05:05:43;100534.69;;;5.71;81.44
79236;BME280;69062;47.460;18.812;2024-03-08T05:07:45;100531.88;;;5.79;81.74
79236;BME280;69062;47.460;18.812;2024-03-08T05:09:48;100537.44;;;5.67;80.70
79236;BME280;69062;47.460;18.812;2024-03-08T05:11:54;100527.88;;;5.66;81.23
79236;BME280;69062;47.460;18.812;2024-03-08T05:13:57;100533.91;;;5.68;81.42
79236;BME280;69062;47.460;18.812;2024-03-08T05:16:01;100530.63;;;5.60;80.85
79236;BME280;69062;47.460;18.812;2024-03-08T05:18:04;100530.41;;;5.69;81.55
79236;BME280;69062;47.460;18.812;2024-03-08T05:20:07;100536.59;;;5.65;81.60
79236;BME280;69062;47.460;18.812;2024-03-08T05:22:10;100530.63;;;5.60;81.67
79236;BME280;69062;47.460;18.812;2024-03-08T05:24:13;100533.34;;;5.55;82.07
79236;BME280;69062;47.460;18.812;2024-03-08T05:26:18;100537.63;;;5.58;82.27
79236;BME280;69062;47.460;18.812;2024-03-08T05:28:21;100542.19;;;5.49;82.56
79236;BME280;69062;47.460;18.812;2024-03-08T05:30:23;100544.88;;;5.46;82.97
79236;BME280;69062;47.460;18.812;2024-03-08T05:32:26;100547.59;;;5.42;82.26
79236;BME280;69062;47.460;18.812;2024-03-08T05:34:33;100542.44;;;5.39;82.42
79236;BME280;69062;47.460;18.812;2024-03-08T05:36:35;100543.25;;;5.41;83.09
79236;BME280;69062;47.460;18.812;2024-03-08T05:38:38;100545.09;;;5.36;82.12
79236;BME280;69062;47.460;18.812;2024-03-08T05:40:41;100542.34;;;5.42;82.45
79236;BME280;69062;47.460;18.812;2024-03-08T05:42:45;100548.28;;;5.51;82.54
79236;BME280;69062;47.460;18.812;2024-03-08T05:44:49;100549.22;;;5.47;81.51
79236;BME280;69062;47.460;18.812;2024-03-08T05:46:52;100559.00;;;5.39;81.60
79236;BME280;69062;47.460;18.812;2024-03-08T05:48:54;100551.84;;;5.47;82.19
79236;BME280;69062;47.460;18.812;2024-03-08T05:50:58;100555.97;;;5.58;82.01
79236;BME280;69062;47.460;18.812;2024-03-08T05:53:01;100563.19;;;5.48;82.89
79236;BME280;69062;47.460;18.812;2024-03-08T05:55:04;100562.00;;;5.61;82.84
79236;BME280;69062;47.460;18.812;2024-03-08T05:57:10;100565.63;;;5.56;82.00
79236;BME280;69062;47.460;18.812;2024-03-08T05:59:13;100558.03;;;5.45;82.31
79236;BME280;69062;47.460;18.812;2024-03-08T06:01:16;100561.38;;;5.51;82.21
79236;BME280;69062;47.460;18.812;2024-03-08T06:03:19;100569.75;;;5.67;82.18
79236;BME280;69062;47.460;18.812;2024-03-08T06:05:24;100567.00;;;5.72;82.07
79236;BME280;69062;47.460;18.812;2024-03-08T06:07:28;100561.75;;;5.72;81.35
79236;BME280;69062;47.460;18.812;2024-03-08T06:09:32;100569.53;;;5.76;81.36
79236;BME280;69062;47.460;18.812;2024-03-08T06:11:35;100569.00;;;5.61;81.90
79236;BME280;69062;47.460;18.812;2024-03-08T06:13:38;100571.03;;;5.48;82.65
79236;BME280;69062;47.460;18.812;2024-03-08T06:15:41;100563.25;;;5.45;81.70
79236;BME280;69062;47.460;18.812;2024-03-08T06:17:44;100567.59;;;5.46;81.83
79236;BME280;69062;47.460;18.812;2024-03-08T06:19:47;100570.28;;;5.43;82.59
79236;BME280;69062;47.460;18.812;2024-03-08T06:21:50;100571.16;;;5.43;82.91
79236;BME280;69062;47.460;18.812;2024-03-08T06:23:56;100569.38;;;5.45;82.84
79236;BME280;69062;47.460;18.812;2024-03-08T06:26:00;100576.94;;;5.58;82.73
79236;BME280;69062;47.460;18.812;2024-03-08T06:28:03;100570.81;;;5.57;82.86
79236;BME280;69062;47.460;18.812;2024-03-08T06:30:07;100581.47;;;5.51;82.87
79236;BME280;69062;47.460;18.812;2024-03-08T06:32:12;100577.94;;;5.52;82.26
79236;BME280;69062;47.460;18.812;2024-03-08T06:34:18;100579.75;;;5.48;82.84
79236;BME280;69062;47.460;18.812;2024-03-08T06:36:21;100586.78;;;5.46;82.88
79236;BME280;69062;47.460;18.812;2024-03-08T06:38:27;100578.06;;;5.46;82.84
79236;BME280;69062;47.460;18.812;2024-03-08T06:40:30;100593.78;;;5.46;82.79
79236;BME280;69062;47.460;18.812;2024-03-08T06:42:33;100594.56;;;5.49;82.23
79236;BME280;69062;47.460;18.812;2024-03-08T06:44:38;100591.13;;;5.47;83.24
79236;BME280;69062;47.460;18.812;2024-03-08T06:46:48;100580.88;;;5.38;82.95
79236;BME280;69062;47.460;18.812;2024-03-08T06:48:51;100586.13;;;5.37;82.51
79236;BME280;69062;47.460;18.812;2024-03-08T06:50:53;100595.59;;;5.42;82.88
79236;BME280;69062;47.460;18.812;2024-03-08T06:52:56;100594.66;;;5.46;82.93
79236;BME280;69062;47.460;18.812;2024-03-08T06:54:59;100594.56;;;5.51;83.34
79236;BME280;69062;47.460;18.812;2024-03-08T06:57:04;100589.22;;;5.56;82.38
79236;BME280;69062;47.460;18.812;2024-03-08T06:59:07;100596.84;;;5.65;82.63
79236;BME280;69062;47.460;18.812;2024-03-08T07:01:15;100596.06;;;5.61;82.62
79236;BME280;69062;47.460;18.812;2024-03-08T07:03:19;100589.91;;;5.64;82.82
79236;BME280;69062;47.460;18.812;2024-03-08T07:05:24;100590.66;;;5.69;83.12
79236;BME280;69062;47.460;18.812;2024-03-08T07:07:31;100595.50;;;5.87;82.40
79236;BME280;69062;47.460;18.812;2024-03-08T07:09:36;100590.50;;;5.76;82.35
79236;BME280;69062;47.460;18.812;2024-03-08T07:11:39;100593.19;;;5.72;83.00
79236;BME280;69062;47.460;18.812;2024-03-08T07:13:46;100595.69;;;5.78;82.01
79236;BME280;69062;47.460;18.812;2024-03-08T07:15:49;100597.44;;;5.77;82.09
79236;BME280;69062;47.460;18.812;2024-03-08T07:17:52;100592.47;;;5.67;82.61
79236;BME280;69062;47.460;18.812;2024-03-08T07:19:55;100591.38;;;5.75;82.00
79236;BME280;69062;47.460;18.812;2024-03-08T07:21:59;100598.44;;;5.72;83.31
79236;BME280;69062;47.460;18.812;2024-03-08T07:24:02;100598.88;;;5.53;82.60
79236;BME280;69062;47.460;18.812;2024-03-08T07:26:15;100600.38;;;5.64;82.79
79236;BME280;69062;47.460;18.812;2024-03-08T07:28:20;100601.16;;;5.69;82.48
79236;BME280;69062;47.460;18.812;2024-03-08T07:30:26;100602.72;;;5.76;82.52
79236;BME280;69062;47.460;18.812;2024-03-08T07:32:58;100601.88;;;5.75;82.36
79236;BME280;69062;47.460;18.812;2024-03-08T07:35:01;100608.63;;;5.86;82.30
79236;BME280;69062;47.460;18.812;2024-03-08T07:37:04;100607.47;;;5.99;82.94
79236;BME280;69062;47.460;18.812;2024-03-08T07:39:09;100615.25;;;6.03;82.48
79236;BME280;69062;47.460;18.812;2024-03-08T07:41:15;100611.09;;;5.93;81.96
79236;BME280;69062;47.460;18.812;2024-03-08T07:43:18;100610.75;;;6.08;81.86
79236;BME280;69062;47.460;18.812;2024-03-08T07:45:21;100610.91;;;6.01;81.52
79236;BME280;69062;47.460;18.812;2024-03-08T07:47:24;100607.19;;;6.11;81.24
79236;BME280;69062;47.460;18.812;2024-03-08T07:49:29;100609.63;;;6.19;81.66
79236;BME280;69062;47.460;18.812;2024-03-08T07:51:32;100609.72;;;6.16;80.79
79236;BME280;69062;47.460;18.812;2024-03-08T07:53:38;100607.41;;;6.02;81.21
79236;BME280;69062;47.460;18.812;2024-03-08T07:55:40;100616.09;;;6.04;82.37
79236;BME280;69062;47.460;18.812;2024-03-08T07:57:45;100610.28;;;5.91;82.17
79236;BME280;69062;47.460;18.812;2024-03-08T07:59:48;100612.66;;;6.02;82.67
79236;BME280;69062;47.460;18.812;2024-03-08T08:01:51;100616.09;;;6.04;82.43
79236;BME280;69062;47.460;18.812;2024-03-08T08:03:54;100610.72;;;6.10;81.44
79236;BME280;69062;47.460;18.812;2024-03-08T08:05:59;100608.88;;;6.14;81.44
79236;BME280;69062;47.460;18.812;2024-03-08T08:08:02;100608.38;;;5.98;81.98
79236;BME280;69062;47.460;18.812;2024-03-08T08:10:08;100610.91;;;6.01;81.21
79236;BME280;69062;47.460;18.812;2024-03-08T08:12:18;100606.56;;;6.01;81.35
79236;BME280;69062;47.460;18.812;2024-03-08T08:14:20;100606.34;;;6.11;81.68
79236;BME280;69062;47.460;18.812;2024-03-08T08:16:23;100606.47;;;6.04;82.46
79236;BME280;69062;47.460;18.812;2024-03-08T08:18:28;100601.22;;;6.04;83.19
79236;BME280;69062;47.460;18.812;2024-03-08T08:20:32;100605.38;;;6.13;83.00
79236;BME280;69062;47.460;18.812;2024-03-08T08:22:34;100602.00;;;6.10;82.00
79236;BME280;69062;47.460;18.812;2024-03-08T08:24:37;100610.66;;;6.12;82.67
79236;BME280;69062;47.460;18.812;2024-03-08T08:26:41;100605.06;;;6.27;81.68
79236;BME280;69062;47.460;18.812;2024-03-08T08:28:43;100615.63;;;6.24;82.43
79236;BME280;69062;47.460;18.812;2024-03-08T08:30:48;100615.09;;;6.08;81.84
79236;BME280;69062;47.460;18.812;2024-03-08T08:32:51;100612.25;;;6.19;82.25
79236;BME280;69062;47.460;18.812;2024-03-08T08:34:54;100615.88;;;6.13;82.15
79236;BME280;69062;47.460;18.812;2024-03-08T08:36:57;100608.81;;;6.17;82.22
79236;BME280;69062;47.460;18.812;2024-03-08T08:38:59;100609.84;;;6.10;82.65
79236;BME280;69062;47.460;18.812;2024-03-08T08:41:02;100613.44;;;6.05;83.18
79236;BME280;69062;47.460;18.812;2024-03-08T08:43:06;100615.16;;;6.06;82.87
79236;BME280;69062;47.460;18.812;2024-03-08T08:45:09;100612.66;;;6.00;82.75
79236;BME280;69062;47.460;18.812;2024-03-08T08:47:19;100610.81;;;6.05;82.38
79236;BME280;69062;47.460;18.812;2024-03-08T08:49:22;100613.91;;;5.84;82.57
79236;BME280;69062;47.460;18.812;2024-03-08T08:51:26;100609.41;;;5.89;84.07
79236;BME280;69062;47.460;18.812;2024-03-08T08:53:30;100609.28;;;5.97;83.17
79236;BME280;69062;47.460;18.812;2024-03-08T08:55:33;100611.56;;;6.11;84.11
79236;BME280;69062;47.460;18.812;2024-03-08T08:57:38;100611.13;;;5.90;83.84
79236;BME280;69062;47.460;18.812;2024-03-08T08:59:43;100611.00;;;5.98;84.05
79236;BME280;69062;47.460;18.812;2024-03-08T09:01:46;100610.91;;;6.01;83.84
79236;BME280;69062;47.460;18.812;2024-03-08T09:03:53;100613.75;;;5.92;84.44
79236;BME280;69062;47.460;18.812;2024-03-08T09:05:56;100614.56;;;5.94;84.47
79236;BME280;69062;47.460;18.812;2024-03-08T09:07:59;100612.75;;;5.97;84.07
79236;BME280;69062;47.460;18.812;2024-03-08T09:10:03;100610.38;;;5.87;84.43
79236;BME280;69062;47.460;18.812;2024-03-08T09:12:20;100615.28;;;6.00;84.91
79236;BME280;69062;47.460;18.812;2024-03-08T09:14:23;100610.28;;;5.91;84.17
79236;BME280;69062;47.460;18.812;2024-03-08T09:16:27;100603.41;;;5.84;84.92
79236;BME280;69062;47.460;18.812;2024-03-08T09:18:30;100610.03;;;6.00;84.58
79236;BME280;69062;47.460;18.812;2024-03-08T09:20:34;100606.50;;;6.03;84.40
79236;BME280;69062;47.460;18.812;2024-03-08T09:22:37;100609.94;;;6.05;85.33
79236;BME280;69062;47.460;18.812;2024-03-08T09:24:40;100602.84;;;6.10;84.40
79236;BME280;69062;47.460;18.812;2024-03-08T09:26:45;100608.94;;;6.11;83.94
79236;BME280;69062;47.460;18.812;2024-03-08T09:28:48;100611.25;;;6.23;84.05
79236;BME280;69062;47.460;18.812;2024-03-08T09:30:52;100607.22;;;6.45;83.39
79236;BME280;69062;47.460;18.812;2024-03-08T09:33:01;100611.63;;;6.45;82.65
79236;BME280;69062;47.460;18.812;2024-03-08T09:35:04;100613.41;;;6.43;82.94
79236;BME280;69062;47.460;18.812;2024-03-08T09:37:11;100619.09;;;6.60;82.14
79236;BME280;69062;47.460;18.812;2024-03-08T09:39:14;100613.84;;;6.58;82.28
79236;BME280;69062;47.460;18.812;2024-03-08T09:41:19;100613.28;;;6.81;82.37
79236;BME280;69062;47.460;18.812;2024-03-08T09:43:22;100613.22;;;6.83;81.58
79236;BME280;69062;47.460;18.812;2024-03-08T09:45:29;100615.91;;;6.81;82.14
79236;BME280;69062;47.460;18.812;2024-03-08T09:47:34;100612.47;;;6.78;81.05
79236;BME280;69062;47.460;18.812;2024-03-08T09:49:41;100618.44;;;6.84;80.88
79236;BME280;69062;47.460;18.812;2024-03-08T09:51:46;100620.25;;;6.82;81.74
79236;BME280;69062;47.460;18.812;2024-03-08T09:53:49;100620.09;;;6.87;82.36
79236;BME280;69062;47.460;18.812;2024-03-08T09:55:51;100621.16;;;6.81;81.10
79236;BME280;69062;47.460;18.812;2024-03-08T09:57:55;100616.66;;;6.85;80.99
79236;BME280;69062;47.460;18.812;2024-03-08T10:00:16;100620.31;;;6.79;81.30
79236;BME280;69062;47.460;18.812;2024-03-08T10:02:27;100625.03;;;6.67;80.82
79236;BME280;69062;47.460;18.812;2024-03-08T10:04:30;100617.75;;;6.78;82.11
79236;BME280;69062;47.460;18.812;2024-03-08T10:06:36;100619.63;;;7.05;81.81
79236;BME280;69062;47.460;18.812;2024-03-08T10:08:39;100622.84;;;7.15;81.74
79236;BME280;69062;47.460;18.812;2024-03-08T10:10:44;100622.16;;;7.39;80.80
79236;BME280;69062;47.460;18.812;2024-03-08T10:12:48;100629.19;;;7.39;80.52
79236;BME280;69062;47.460;18.812;2024-03-08T10:14:55;100622.00;;;7.44;79.70
79236;BME280;69062;47.460;18.812;2024-03-08T10:16:58;100616.00;;;7.40;79.12
79236;BME280;69062;47.460;18.812;2024-03-08T10:19:03;100624.72;;;7.11;78.83
79236;BME280;69062;47.460;18.812;2024-03-08T10:21:09;100621.88;;;7.19;79.82
79236;BME280;69062;47.460;18.812;2024-03-08T10:23:15;100629.97;;;7.11;79.74
79236;BME280;69062;47.460;18.812;2024-03-08T10:25:22;100623.38;;;7.28;78.73
79236;BME280;69062;47.460;18.812;2024-03-08T10:27:27;100620.00;;;7.23;80.06
79236;BME280;69062;47.460;18.812;2024-03-08T10:29:32;100612.34;;;7.46;80.13
79236;BME280;69062;47.460;18.812;2024-03-08T10:31:35;100618.16;;;7.56;79.94
79236;BME280;69062;47.460;18.812;2024-03-08T10:33:38;100616.53;;;7.52;79.24
79236;BME280;69062;47.460;18.812;2024-03-08T10:35:42;100621.09;;;7.45;79.50
79236;BME280;69062;47.460;18.812;2024-03-08T10:37:49;100624.84;;;7.36;78.91
79236;BME280;69062;47.460;18.812;2024-03-08T10:40:04;100620.47;;;7.37;78.80
79236;BME280;69062;47.460;18.812;2024-03-08T10:42:16;100617.72;;;7.41;79.56
79236;BME280;69062;47.460;18.812;2024-03-08T10:47:03;100618.25;;;7.53;79.04
79236;BME280;69062;47.460;18.812;2024-03-08T10:49:16;100615.84;;;7.45;79.65
79236;BME280;69062;47.460;18.812;2024-03-08T10:51:20;100609.88;;;7.40;78.54